Date,TemperatureHighF,TemperatureAvgF,TemperatureLowF,DewpointHighF,DewpointAvgF,DewpointLowF,HumidityHigh,HumidityAvg,HumidityLow,PressureMaxIn,PressureMinIn,WindSpeedMaxMPH,WindSpeedAvgMPH,GustSpeedMaxMPH,PrecipitationSumIn
2013-11-1,74.4,66.5,51.9,63.9,55.7,48.1,93,70,43,29.73,29.58,27,9,39,0.25
2013-11-2,65.7,53.6,43.9,51.0,43.8,38.4,95,72,40,29.94,29.70,12,3,20,0.00
2013-11-3,57.8,46.3,33.4,41.7,34.6,28.1,92,67,34,30.44,29.94,13,4,21,0.00
2013-11-4,46.7,37.4,30.3,32.5,29.4,26.8,92,74,53,30.63,30.44,6,2,10,0.00
2013-11-5,54.3,43.0,31.4,44.8,36.7,29.6,94,79,62,30.64,30.46,5,1,9,0.00
2013-11-6,68.8,57.5,47.7,53.6,49.7,42.2,91,77,57,30.46,30.07,20,7,27,0.00
2013-11-7,59.4,54.1,42.2,56.5,45.7,27.3,95,74,50,30.13,29.91,16,6,23,0.14
2013-11-8,50.6,42.2,31.7,33.9,29.2,26.4,85,61,42,30.34,30.13,15,4,24,0.00
2013-11-9,57.6,42.3,27.6,36.1,30.2,25.8,95,66,37,30.34,30.07,24,6,28,0.00
2013-11-10,61.0,47.6,35.8,40.2,31.8,28.5,77,56,30,30.29,30.01,23,6,26,0.00
2013-11-11,62.7,45.9,31.1,36.1,30.1,25.4,90,59,26,30.32,30.02,17,6,22,0.00
2013-11-12,51.0,39.2,28.0,38.9,26.6,19.2,73,61,47,30.45,29.99,22,6,26,0.00
2013-11-13,43.7,33.6,24.8,22.9,20.8,18.8,78,60,38,30.52,30.41,13,4,19,0.00
2013-11-14,60.9,38.8,22.9,28.5,22.8,18.5,87,58,24,30.40,30.23,12,3,15,0.00
2013-11-15,64.3,45.3,27.9,44.2,27.7,18.8,91,56,18,30.30,30.16,14,3,19,0.09
2013-11-16,61.9,50.8,42.1,54.8,48.2,41.2,98,91,75,30.31,30.20,11,1,15,0.06
2013-11-17,64.2,60.3,54.2,59.7,56.1,52.3,95,86,76,30.21,29.72,27,9,30,0.02
2013-11-18,64.3,57.2,47.9,60.2,37.9,27.4,92,52,26,30.00,29.71,27,8,30,0.12
2013-11-19,47.9,41.3,30.9,31.4,29.2,27.9,88,63,49,30.39,30.00,14,4,21,0.00
2013-11-20,46.8,34.6,28.4,32.0,27.3,24.9,94,77,48,30.54,30.39,9,2,13,0.00
2013-11-21,51.6,41.1,26.9,48.1,36.5,24.3,92,84,74,30.55,30.36,13,2,18,0.00
2013-11-22,65.8,58.4,51.3,56.4,52.0,46.5,87,80,70,30.37,30.04,16,7,21,0.00
2013-11-23,56.3,44.3,29.9,50.5,31.7,18.5,84,63,35,30.26,30.07,16,6,25,0.00
2013-11-24,30.2,25.3,19.2,17.9,10.6,7.9,74,53,43,30.55,30.26,24,9,32,0.00
2013-11-25,40.8,28.1,15.4,17.6,14.7,11.2,87,60,33,30.54,30.31,19,5,25,0.00
2013-11-26,38.0,36.3,34.6,37.0,30.5,17.3,98,82,45,30.32,29.67,14,3,21,1.61
2013-11-27,38.2,35.3,28.1,37.2,31.4,17.0,98,87,63,30.12,29.60,17,4,23,0.08
2013-11-28,40.5,30.4,23.9,25.1,20.7,16.5,82,68,48,30.45,30.12,9,2,17,0.00
2013-11-29,43.3,31.3,21.6,28.9,24.6,19.8,94,78,53,30.70,30.44,10,2,14,0.00
2013-11-30,41.1,28.6,19.2,29.5,24.0,17.8,95,84,60,30.70,30.34,9,1,12,0.00